createdAt,value
2019-04-13T00:00:01.334Z,22.39
2019-04-13T00:02:27.759Z,22.37
2019-04-13T00:04:54.204Z,22.36
2019-04-13T00:07:20.645Z,22.36
2019-04-13T00:09:46.975Z,22.37
2019-04-13T00:12:13.356Z,22.37
2019-04-13T00:14:39.694Z,22.36
2019-04-13T00:17:06.047Z,22.35
2019-04-13T00:19:32.382Z,22.34
2019-04-13T00:21:58.708Z,22.33
2019-04-13T00:24:25.146Z,22.33
2019-04-13T00:26:51.479Z,22.34
2019-04-13T00:29:17.817Z,22.32
2019-04-13T00:31:44.195Z,22.30
2019-04-13T00:34:10.543Z,22.29
2019-04-13T00:36:37.002Z,22.29
2019-04-13T00:39:06.441Z,22.31
2019-04-13T00:41:32.740Z,22.28
2019-04-13T00:43:59.062Z,22.27
2019-04-13T00:46:25.398Z,22.27
2019-04-13T00:48:51.740Z,22.30
2019-04-13T00:51:18.121Z,22.26
2019-04-13T00:53:44.482Z,22.28
2019-04-13T00:56:10.825Z,22.25
2019-04-13T00:58:37.158Z,22.25
2019-04-13T01:01:03.571Z,22.25
2019-04-13T01:03:29.877Z,22.25
2019-04-13T01:05:56.283Z,22.27
2019-04-13T01:08:22.572Z,22.23
2019-04-13T01:10:48.931Z,22.21
2019-04-13T01:13:15.263Z,22.23
2019-04-13T01:15:41.597Z,22.21
2019-04-13T01:18:07.943Z,22.22
2019-04-13T01:20:34.273Z,22.20
2019-04-13T01:23:00.655Z,22.20
2019-04-13T01:25:26.989Z,22.20
2019-04-13T01:27:53.355Z,22.17
2019-04-13T01:30:19.701Z,22.19
2019-04-13T01:32:46.148Z,22.17
2019-04-13T01:35:12.466Z,22.16
2019-04-13T01:37:38.808Z,22.15
2019-04-13T01:40:05.196Z,22.18
2019-04-13T01:42:31.516Z,22.17
2019-04-13T01:44:57.857Z,22.16
2019-04-13T01:47:24.273Z,22.15
2019-04-13T01:49:50.714Z,22.09
2019-04-13T01:52:17.048Z,22.13
2019-04-13T01:54:43.455Z,22.12
2019-04-13T01:57:09.784Z,22.13
2019-04-13T01:59:36.152Z,22.13
2019-04-13T02:02:02.506Z,22.10
2019-04-13T02:04:28.882Z,22.10
2019-04-13T02:06:55.215Z,22.08
2019-04-13T02:09:21.541Z,22.11
2019-04-13T02:11:47.936Z,22.10
2019-04-13T02:14:14.265Z,22.08
2019-04-13T02:16:40.629Z,22.10
2019-04-13T02:19:06.960Z,22.09
2019-04-13T02:21:33.364Z,22.07
2019-04-13T02:23:59.736Z,22.05
2019-04-13T02:26:26.058Z,22.09
2019-04-13T02:28:52.475Z,22.05
2019-04-13T02:31:18.802Z,22.04
2019-04-13T02:33:45.301Z,22.05
2019-04-13T02:36:11.670Z,22.05
2019-04-13T02:38:38.014Z,22.04
2019-04-13T02:41:04.448Z,22.04
2019-04-13T02:43:30.733Z,22.04
2019-04-13T02:45:57.098Z,22.05
2019-04-13T02:48:23.447Z,22.02
2019-04-13T02:50:49.777Z,22.02
2019-04-13T02:53:16.126Z,22.04
2019-04-13T02:55:42.530Z,22.02
2019-04-13T02:58:08.824Z,22.01
2019-04-13T03:00:35.184Z,22.01
2019-04-13T03:03:01.540Z,22.02
2019-04-13T03:05:27.896Z,22.03
2019-04-13T03:07:54.257Z,22.03
2019-04-13T03:10:20.586Z,22.01
2019-04-13T03:12:46.938Z,22.02
2019-04-13T03:15:13.259Z,22.01
2019-04-13T03:17:39.620Z,21.98
2019-04-13T03:20:05.942Z,21.99
2019-04-13T03:22:32.269Z,21.98
2019-04-13T03:24:58.601Z,21.96
2019-04-13T03:27:24.974Z,22.01
2019-04-13T03:29:51.300Z,21.98
2019-04-13T03:32:17.635Z,21.96
2019-04-13T03:34:43.968Z,21.97
2019-04-13T03:37:10.349Z,21.98
2019-04-13T03:39:36.647Z,21.98
2019-04-13T03:42:02.989Z,22.00
2019-04-13T03:44:29.319Z,21.99
2019-04-13T03:46:55.670Z,21.96
2019-04-13T03:49:22.024Z,21.96
2019-04-13T03:51:48.362Z,21.94
2019-04-13T03:54:14.722Z,21.96
2019-04-13T03:56:41.130Z,21.93
2019-04-13T03:59:07.603Z,21.95
2019-04-13T04:01:33.998Z,21.97
2019-04-13T04:04:00.363Z,21.95
2019-04-13T04:06:26.740Z,21.96
2019-04-13T04:08:53.093Z,21.99
2019-04-13T04:11:19.437Z,21.96
2019-04-13T04:13:45.833Z,21.97
2019-04-13T04:16:12.290Z,21.95
2019-04-13T04:18:38.699Z,21.97
2019-04-13T04:21:05.038Z,22.00
2019-04-13T04:23:31.360Z,21.97
2019-04-13T04:25:57.694Z,21.96
2019-04-13T04:28:24.024Z,21.97
2019-04-13T04:30:50.392Z,22.00
2019-04-13T04:33:16.684Z,22.01
2019-04-13T04:35:43.093Z,22.03
2019-04-13T04:38:09.443Z,22.01
2019-04-13T04:40:35.775Z,22.05
2019-04-13T04:43:02.105Z,22.05
2019-04-13T04:45:28.480Z,22.06
2019-04-13T04:47:54.775Z,22.07
2019-04-13T04:50:21.102Z,22.09
2019-04-13T04:52:47.454Z,22.10
2019-04-13T04:55:13.922Z,22.08
2019-04-13T04:57:40.201Z,22.08
2019-04-13T05:00:06.581Z,22.07
2019-04-13T05:02:33.037Z,22.09
2019-04-13T05:04:59.257Z,22.08
2019-04-13T05:07:25.617Z,22.10
2019-04-13T05:09:51.975Z,22.14
2019-04-13T05:12:18.301Z,22.12
2019-04-13T05:14:44.736Z,22.14
2019-04-13T05:17:11.068Z,22.17
2019-04-13T05:19:37.426Z,22.26
2019-04-13T05:22:03.847Z,22.33
2019-04-13T05:24:30.159Z,22.29
2019-04-13T05:26:56.693Z,22.29
2019-04-13T05:29:23.058Z,22.27
2019-04-13T05:31:49.435Z,22.27
2019-04-13T05:34:15.723Z,22.26
2019-04-13T05:36:47.521Z,22.24
2019-04-13T05:39:08.457Z,22.24
2019-04-13T05:41:34.777Z,22.24
2019-04-13T05:44:01.165Z,22.25
2019-04-13T05:46:27.541Z,22.21
2019-04-13T05:48:53.906Z,22.22
2019-04-13T05:51:20.229Z,22.24
2019-04-13T05:53:46.572Z,22.25
2019-04-13T05:56:12.967Z,22.23
2019-04-13T05:58:39.331Z,22.24
2019-04-13T06:01:05.703Z,22.25
2019-04-13T06:03:32.014Z,22.25
2019-04-13T06:05:58.397Z,22.25
2019-04-13T06:08:24.768Z,22.28
2019-04-13T06:10:51.127Z,22.28
2019-04-13T06:13:17.509Z,22.27
2019-04-13T06:15:43.857Z,22.30
2019-04-13T06:18:20.812Z,22.31
2019-04-13T06:20:36.621Z,22.30
2019-04-13T06:23:02.985Z,22.31
2019-04-13T06:25:30.802Z,22.29
2019-04-13T06:27:55.666Z,22.32
2019-04-13T06:30:22.010Z,22.32
2019-04-13T06:32:48.381Z,22.33
2019-04-13T06:35:14.708Z,22.33
2019-04-13T06:37:41.045Z,22.33
2019-04-13T06:40:08.395Z,22.32
2019-04-13T06:42:33.773Z,22.33
2019-04-13T06:45:00.105Z,22.34
2019-04-13T06:47:26.484Z,22.35
2019-04-13T06:49:52.785Z,22.35
2019-04-13T06:52:19.157Z,22.37
2019-04-13T06:54:45.478Z,22.36
2019-04-13T06:57:11.834Z,22.36
2019-04-13T06:59:39.337Z,22.35
2019-04-13T07:02:04.497Z,22.37
2019-04-13T07:04:30.837Z,22.36
2019-04-13T07:06:57.168Z,22.39
2019-04-13T07:09:26.600Z,22.40
2019-04-13T07:11:49.961Z,22.39
2019-04-13T07:14:16.228Z,22.39
2019-04-13T07:16:43.973Z,22.40
2019-04-13T07:19:08.928Z,22.39
2019-04-13T07:21:37.854Z,22.41
2019-04-13T07:24:01.691Z,22.43
2019-04-13T07:26:27.975Z,22.42
2019-04-13T07:28:56.848Z,22.42
2019-04-13T07:31:23.229Z,22.44
2019-04-13T07:33:50.177Z,22.45
2019-04-13T07:36:16.027Z,22.46
2019-04-13T07:38:46.835Z,22.45
2019-04-13T07:41:08.757Z,22.48
2019-04-13T07:43:35.143Z,22.49
2019-04-13T07:46:01.482Z,22.50
2019-04-13T07:48:27.879Z,22.52
2019-04-13T07:50:54.210Z,22.53
2019-04-13T07:53:20.543Z,22.55
2019-04-13T07:55:46.920Z,22.57
2019-04-13T07:58:16.652Z,22.58
2019-04-13T08:00:39.589Z,22.63
2019-04-13T08:03:05.975Z,22.63
2019-04-13T08:05:32.316Z,22.66
2019-04-13T08:07:58.649Z,22.72
2019-04-13T08:10:25.052Z,22.76
2019-04-13T08:12:51.381Z,22.79
2019-04-13T08:15:17.811Z,22.76
2019-04-13T08:17:44.139Z,22.80
2019-04-13T08:20:10.475Z,22.82
2019-04-13T08:22:37.379Z,22.82
2019-04-13T08:25:03.237Z,22.85
2019-04-13T08:27:31.240Z,22.84
2019-04-13T08:29:55.886Z,22.88
2019-04-13T08:32:22.229Z,22.88
2019-04-13T08:34:48.604Z,22.90
2019-04-13T08:37:15.062Z,22.91
2019-04-13T08:39:41.335Z,22.93
2019-04-13T08:42:18.931Z,22.94
2019-04-13T08:44:36.447Z,22.97
2019-04-13T08:47:00.353Z,22.97
2019-04-13T08:49:26.725Z,22.98
2019-04-13T08:51:53.008Z,22.99
2019-04-13T08:54:19.346Z,22.99
2019-04-13T08:56:45.734Z,23.01
2019-04-13T08:59:12.071Z,23.01
2019-04-13T09:01:38.405Z,23.00
2019-04-13T09:04:04.781Z,23.01
2019-04-13T09:06:31.112Z,23.03
2019-04-13T09:09:02.467Z,23.05
2019-04-13T09:11:24.678Z,23.04
2019-04-13T09:13:50.120Z,23.06
2019-04-13T09:16:16.461Z,23.06
2019-04-13T09:18:44.139Z,23.07
2019-04-13T09:21:09.626Z,23.12
2019-04-13T09:23:36.995Z,23.08
2019-04-13T09:26:01.918Z,23.12
2019-04-13T09:28:28.272Z,23.08
2019-04-13T09:30:54.617Z,23.06
2019-04-13T09:33:20.978Z,23.04
2019-04-13T09:35:47.333Z,23.04
2019-04-13T09:38:13.673Z,23.01
2019-04-13T09:40:40.071Z,23.04
2019-04-13T09:43:06.426Z,23.02
2019-04-13T09:45:34.521Z,23.03
2019-04-13T09:47:59.081Z,23.03
2019-04-13T09:50:25.419Z,23.06
2019-04-13T09:52:51.760Z,23.07
2019-04-13T09:55:18.112Z,23.09
2019-04-13T09:57:44.460Z,23.10
2019-04-13T10:00:10.814Z,23.07
2019-04-13T10:02:37.707Z,23.10
2019-04-13T10:05:03.557Z,23.09
2019-04-13T10:07:29.950Z,23.11
2019-04-13T10:09:56.278Z,23.13
2019-04-13T10:12:22.605Z,23.09
2019-04-13T10:14:48.941Z,23.13
2019-04-13T10:17:15.269Z,23.10
2019-04-13T10:19:41.611Z,23.14
2019-04-13T10:22:07.934Z,23.13
2019-04-13T10:24:34.270Z,23.12
2019-04-13T10:27:00.611Z,23.10
2019-04-13T10:29:26.995Z,23.14
2019-04-13T10:31:53.355Z,23.16
2019-04-13T10:34:19.695Z,23.17
2019-04-13T10:36:46.078Z,23.07
2019-04-13T10:39:12.451Z,23.07
2019-04-13T10:41:38.736Z,23.08
2019-04-13T10:44:07.838Z,23.04
2019-04-13T10:46:31.422Z,23.06
2019-04-13T10:48:58.653Z,23.06
2019-04-13T10:51:24.080Z,23.08
2019-04-13T10:53:50.442Z,23.06
2019-04-13T10:56:16.786Z,23.02
2019-04-13T10:58:43.132Z,23.01
2019-04-13T11:01:09.512Z,23.01
2019-04-13T11:03:35.841Z,23.02
2019-04-13T11:06:02.171Z,23.00
2019-04-13T11:08:28.518Z,23.00
2019-04-13T11:10:55.067Z,22.98
2019-04-13T11:13:21.401Z,22.97
2019-04-13T11:15:47.778Z,22.95
2019-04-13T11:18:14.170Z,22.96
2019-04-13T11:20:40.567Z,22.95
2019-04-13T11:23:06.903Z,22.97
2019-04-13T11:25:33.236Z,22.95
2019-04-13T11:27:59.538Z,22.95
2019-04-13T11:30:25.911Z,22.95
2019-04-13T11:32:52.346Z,22.93
2019-04-13T11:35:18.679Z,22.96
2019-04-13T11:37:45.006Z,22.93
2019-04-13T11:40:11.334Z,22.93
2019-04-13T11:42:37.654Z,22.93
2019-04-13T11:45:03.989Z,22.93
2019-04-13T11:47:30.344Z,22.92
2019-04-13T11:49:57.619Z,22.91
2019-04-13T11:52:23.152Z,22.93
2019-04-13T11:54:49.404Z,22.92
2019-04-13T11:57:15.715Z,22.91
2019-04-13T11:59:44.655Z,22.90
2019-04-13T12:02:08.412Z,22.90
2019-04-13T12:04:34.746Z,22.90
2019-04-13T12:07:01.174Z,22.90
2019-04-13T12:09:29.082Z,22.91
2019-04-13T12:11:55.186Z,22.91
2019-04-13T12:14:20.286Z,22.89
2019-04-13T12:16:46.605Z,22.88
2019-04-13T12:19:12.974Z,22.88
2019-04-13T12:21:39.367Z,22.88
2019-04-13T12:24:05.682Z,22.88
2019-04-13T12:26:32.054Z,22.89
2019-04-13T12:28:58.449Z,22.88
2019-04-13T12:31:24.767Z,22.88
2019-04-13T12:33:51.131Z,22.85
2019-04-13T12:36:21.289Z,22.86
2019-04-13T12:38:49.603Z,22.85
2019-04-13T12:41:10.202Z,22.86
2019-04-13T12:43:36.594Z,22.85
2019-04-13T12:46:02.927Z,22.86
2019-04-13T12:48:29.264Z,22.85
2019-04-13T12:50:55.600Z,22.87
2019-04-13T12:53:21.932Z,22.85
2019-04-13T12:55:48.259Z,22.85
2019-04-13T12:58:14.636Z,22.85
2019-04-13T13:00:41.735Z,22.85
2019-04-13T13:03:09.252Z,22.85
2019-04-13T13:05:33.729Z,22.83
2019-04-13T13:08:00.060Z,22.84
2019-04-13T13:10:26.443Z,22.83
2019-04-13T13:12:52.881Z,22.84
2019-04-13T13:15:19.212Z,22.82
2019-04-13T13:17:45.540Z,22.82
2019-04-13T13:20:11.920Z,22.81
2019-04-13T13:22:38.232Z,22.80
2019-04-13T13:25:04.582Z,22.78
2019-04-13T13:27:30.935Z,22.78
2019-04-13T13:29:57.304Z,22.78
2019-04-13T13:32:23.608Z,22.76
2019-04-13T13:34:49.996Z,22.76
2019-04-13T13:37:16.330Z,22.75
2019-04-13T13:39:44.850Z,22.73
2019-04-13T13:42:08.983Z,22.72
2019-04-13T13:44:35.350Z,22.71
2019-04-13T13:47:01.674Z,22.71
2019-04-13T13:49:28.055Z,22.67
2019-04-13T13:51:56.135Z,22.67
2019-04-13T13:54:20.801Z,22.67
2019-04-13T13:56:47.133Z,22.65
2019-04-13T13:59:13.465Z,22.63
2019-04-13T14:01:43.222Z,22.62
2019-04-13T14:04:06.196Z,22.60
2019-04-13T14:06:32.562Z,22.58
2019-04-13T14:08:58.888Z,22.56
2019-04-13T14:11:25.274Z,22.56
2019-04-13T14:13:51.708Z,22.53
2019-04-13T14:16:18.067Z,22.52
2019-04-13T14:18:44.405Z,22.50
2019-04-13T14:21:10.831Z,22.50
2019-04-13T14:23:37.163Z,22.50
2019-04-13T14:26:03.515Z,22.48
2019-04-13T14:28:29.787Z,22.48
2019-04-13T14:30:56.169Z,22.45
2019-04-13T14:33:22.494Z,22.43
2019-04-13T14:35:48.860Z,22.43
2019-04-13T14:38:15.201Z,22.43
2019-04-13T14:40:41.568Z,22.43
2019-04-13T14:43:07.909Z,22.40
2019-04-13T14:45:34.281Z,22.38
2019-04-13T14:48:00.618Z,22.37
2019-04-13T14:50:27.123Z,22.38
2019-04-13T14:52:53.421Z,22.37
2019-04-13T14:55:19.810Z,22.36
2019-04-13T14:57:46.138Z,22.36
2019-04-13T15:00:12.457Z,22.34
2019-04-13T15:02:38.827Z,22.31
2019-04-13T15:05:05.157Z,22.32
2019-04-13T15:07:32.927Z,22.32
2019-04-13T15:09:57.895Z,22.32
2019-04-13T15:12:24.277Z,22.28
2019-04-13T15:14:51.757Z,22.25
2019-04-13T15:17:19.057Z,22.25
2019-04-13T15:19:55.789Z,22.24
2019-04-13T15:22:12.268Z,22.22
2019-04-13T15:24:37.004Z,22.22
2019-04-13T15:27:02.382Z,22.22
2019-04-13T15:29:31.644Z,22.16
2019-04-13T15:31:55.313Z,22.17
2019-04-13T15:34:26.168Z,22.19
2019-04-13T15:36:48.613Z,22.14
2019-04-13T15:39:14.108Z,22.13
2019-04-13T15:41:52.853Z,22.11
2019-04-13T15:44:09.005Z,22.11
2019-04-13T15:46:33.343Z,22.09
2019-04-13T15:49:00.546Z,22.10
2019-04-13T15:51:25.938Z,22.05
2019-04-13T15:53:52.267Z,22.04
2019-04-13T15:56:19.802Z,22.06
2019-04-13T15:58:44.961Z,22.04
2019-04-13T16:01:11.385Z,22.02
2019-04-13T16:03:38.119Z,22.00
2019-04-13T16:06:04.731Z,21.98
2019-04-13T16:08:30.683Z,21.96
2019-04-13T16:10:57.186Z,21.97
2019-04-13T16:13:23.687Z,21.98
2019-04-13T16:15:49.594Z,21.99
2019-04-13T16:18:15.763Z,21.95
2019-04-13T16:20:42.290Z,21.92
2019-04-13T16:23:08.967Z,21.92
2019-04-13T16:25:35.876Z,21.90
2019-04-13T16:28:01.887Z,21.90
2019-04-13T16:30:28.374Z,21.88
2019-04-13T16:32:53.831Z,21.87
2019-04-13T16:35:20.171Z,21.87
2019-04-13T16:37:46.494Z,21.83
2019-04-13T16:40:14.072Z,21.83
2019-04-13T16:42:39.643Z,21.82
2019-04-13T16:45:05.534Z,21.77
2019-04-13T16:47:33.012Z,21.78
2019-04-13T16:49:58.794Z,21.75
2019-04-13T16:52:25.832Z,21.75
2019-04-13T16:54:58.661Z,21.75
2019-04-13T16:57:17.325Z,21.74
2019-04-13T16:59:43.524Z,21.70
2019-04-13T17:02:11.012Z,21.71
2019-04-13T17:04:36.247Z,21.68
2019-04-13T17:07:02.667Z,21.69
2019-04-13T17:09:29.352Z,21.68
2019-04-13T17:12:01.893Z,21.68
2019-04-13T17:14:22.592Z,21.65
2019-04-13T17:16:48.370Z,21.65
2019-04-13T17:19:15.570Z,21.64
2019-04-13T17:21:40.755Z,21.65
2019-04-13T17:24:07.366Z,21.65
2019-04-13T17:26:33.591Z,21.64
2019-04-13T17:29:00.200Z,21.65
2019-04-13T17:31:26.370Z,21.62
2019-04-13T17:33:52.617Z,21.60
2019-04-13T17:36:19.091Z,21.61
2019-04-13T17:38:45.779Z,21.62
2019-04-13T17:41:16.856Z,21.60
2019-04-13T17:43:38.748Z,21.59
2019-04-13T17:46:04.849Z,21.62
2019-04-13T17:48:30.702Z,21.60
2019-04-13T17:50:58.073Z,21.60
2019-04-13T17:53:24.405Z,21.58
2019-04-13T17:55:50.467Z,21.58
2019-04-13T17:58:16.814Z,21.59
2019-04-13T18:00:42.976Z,21.57
2019-04-13T18:03:08.826Z,21.60
2019-04-13T18:05:35.794Z,21.58
2019-04-13T18:08:01.648Z,21.57
2019-04-13T18:10:30.082Z,21.58
2019-04-13T18:12:57.721Z,21.55
2019-04-13T18:15:21.702Z,21.55
2019-04-13T18:17:47.467Z,21.54
2019-04-13T18:20:13.602Z,21.54
2019-04-13T18:22:40.866Z,21.52
2019-04-13T18:25:06.045Z,21.54
2019-04-13T18:27:32.706Z,21.52
2019-04-13T18:30:09.947Z,21.50
2019-04-13T18:32:25.862Z,21.49
2019-04-13T18:34:51.867Z,21.50
2019-04-13T18:37:17.962Z,21.51
2019-04-13T18:39:44.196Z,21.48
2019-04-13T18:42:10.455Z,21.49
2019-04-13T18:44:36.922Z,21.51
2019-04-13T18:47:03.593Z,21.48
2019-04-13T18:49:30.294Z,21.48
2019-04-13T18:51:56.582Z,21.50
2019-04-13T18:54:22.325Z,21.45
2019-04-13T18:56:48.653Z,21.44
2019-04-13T18:59:15.122Z,21.44
2019-04-13T19:01:41.338Z,21.44
2019-04-13T19:04:07.665Z,21.44
2019-04-13T19:06:34.046Z,21.43
2019-04-13T19:09:00.376Z,21.45
2019-04-13T19:11:26.763Z,21.46
2019-04-13T19:13:53.198Z,21.44
2019-04-13T19:16:19.570Z,21.44
2019-04-13T19:18:46.541Z,21.41
2019-04-13T19:21:12.236Z,21.43
2019-04-13T19:23:38.589Z,21.41
2019-04-13T19:26:04.968Z,21.40
2019-04-13T19:28:31.289Z,21.38
2019-04-13T19:30:57.673Z,21.41
2019-04-13T19:33:24.014Z,21.40
2019-04-13T19:35:50.297Z,21.40
2019-04-13T19:38:16.645Z,21.41
2019-04-13T19:40:43.094Z,21.40
2019-04-13T19:43:16.319Z,21.36
2019-04-13T19:45:35.833Z,21.38
2019-04-13T19:48:02.123Z,21.40
2019-04-13T19:50:28.453Z,21.37
2019-04-13T19:52:54.830Z,21.40
2019-04-13T19:55:21.128Z,21.37
2019-04-13T19:57:47.509Z,21.35
2019-04-13T20:00:13.817Z,21.35
2019-04-13T20:02:40.310Z,21.35
2019-04-13T20:05:06.649Z,21.31
2019-04-13T20:07:33.004Z,21.35
2019-04-13T20:09:59.334Z,21.36
2019-04-13T20:12:25.769Z,21.33
2019-04-13T20:14:52.250Z,21.32
2019-04-13T20:17:18.419Z,21.33
2019-04-13T20:19:44.762Z,21.32
2019-04-13T20:22:11.119Z,21.30
2019-04-13T20:24:37.449Z,21.30
2019-04-13T20:27:04.463Z,21.31
2019-04-13T20:29:30.196Z,21.35
2019-04-13T20:31:57.062Z,21.31
2019-04-13T20:34:22.929Z,21.29
2019-04-13T20:36:50.400Z,21.30
2019-04-13T20:39:15.902Z,21.27
2019-04-13T20:41:51.632Z,21.32
2019-04-13T20:44:12.451Z,21.30
2019-04-13T20:46:34.613Z,21.31
2019-04-13T20:49:02.012Z,21.29
2019-04-13T20:51:27.854Z,21.29
2019-04-13T20:53:53.691Z,21.30
2019-04-13T20:56:20.790Z,21.31
2019-04-13T20:58:46.515Z,21.27
2019-04-13T21:01:12.684Z,21.27
2019-04-13T21:03:40.141Z,21.23
2019-04-13T21:06:06.456Z,21.25
2019-04-13T21:08:32.326Z,21.25
2019-04-13T21:10:58.077Z,21.25
2019-04-13T21:13:25.399Z,21.27
2019-04-13T21:15:51.007Z,21.23
2019-04-13T21:18:17.127Z,21.22
2019-04-13T21:20:44.732Z,21.23
2019-04-13T21:23:10.327Z,21.23
2019-04-13T21:25:36.090Z,21.22
2019-04-13T21:28:03.747Z,21.23
2019-04-13T21:30:29.324Z,21.22
2019-04-13T21:32:55.553Z,21.22
2019-04-13T21:35:21.516Z,21.22
2019-04-13T21:37:48.768Z,21.20
2019-04-13T21:40:14.486Z,21.20
2019-04-13T21:42:40.584Z,21.18
2019-04-13T21:45:07.979Z,21.17
2019-04-13T21:47:33.909Z,21.22
2019-04-13T21:50:00.121Z,21.17
2019-04-13T21:52:26.001Z,21.22
2019-04-13T21:54:52.439Z,21.18
2019-04-13T21:57:19.781Z,21.21
2019-04-13T21:59:45.593Z,21.19
2019-04-13T22:02:11.629Z,21.16
2019-04-13T22:04:38.962Z,21.17
2019-04-13T22:07:04.715Z,21.15
2019-04-13T22:09:30.689Z,21.16
2019-04-13T22:11:58.237Z,21.18
2019-04-13T22:14:35.300Z,21.17
2019-04-13T22:16:50.020Z,21.18
2019-04-13T22:19:16.166Z,21.14
2019-04-13T22:21:43.541Z,21.16
2019-04-13T22:24:09.249Z,21.15
2019-04-13T22:26:35.241Z,21.15
2019-04-13T22:29:02.801Z,21.17
2019-04-13T22:31:28.853Z,21.15
2019-04-13T22:33:54.598Z,21.14
2019-04-13T22:36:20.817Z,21.14
2019-04-13T22:38:47.863Z,21.14
2019-04-13T22:41:13.514Z,21.14
2019-04-13T22:43:41.249Z,21.14
2019-04-13T22:46:06.442Z,21.12
2019-04-13T22:48:33.200Z,21.14
2019-04-13T22:50:59.087Z,21.15
2019-04-13T22:53:26.277Z,21.16
2019-04-13T22:55:52.146Z,21.16
2019-04-13T22:58:18.330Z,21.14
2019-04-13T23:00:45.488Z,21.13
2019-04-13T23:03:11.413Z,21.12
2019-04-13T23:05:37.182Z,21.12
2019-04-13T23:08:03.402Z,21.15
2019-04-13T23:10:31.011Z,21.13
2019-04-13T23:12:59.287Z,21.13
2019-04-13T23:15:32.123Z,21.12
2019-04-13T23:17:51.081Z,21.13
2019-04-13T23:20:17.442Z,21.12
2019-04-13T23:22:43.793Z,21.12
2019-04-13T23:25:11.227Z,21.12
2019-04-13T23:27:37.298Z,21.10
2019-04-13T23:30:03.099Z,21.09
2019-04-13T23:32:29.365Z,21.12
2019-04-13T23:34:58.516Z,21.11
2019-04-13T23:37:23.233Z,21.10
2019-04-13T23:39:49.396Z,21.09
2019-04-13T23:42:15.739Z,21.11
2019-04-13T23:44:42.069Z,21.07
2019-04-13T23:47:07.925Z,21.07
2019-04-13T23:49:34.138Z,21.08
2019-04-13T23:52:00.278Z,21.08
2019-04-13T23:54:26.621Z,21.08
2019-04-13T23:56:54.176Z,21.08
2019-04-13T23:59:19.687Z,21.08
